createdAt,value
2018-05-17T00:01:02.867Z,5.00
2018-05-17T00:02:02.838Z,5.10
2018-05-17T00:03:55.693Z,4.60
2018-05-17T00:04:55.672Z,4.90
2018-05-17T00:06:48.532Z,4.60
2018-05-17T00:07:48.506Z,5.00
2018-05-17T00:09:41.358Z,4.90
2018-05-17T00:10:41.340Z,4.90
2018-05-17T00:11:41.324Z,5.10
2018-05-17T00:12:41.317Z,4.90
2018-05-17T00:13:41.297Z,4.80
2018-05-17T00:14:41.291Z,5.00
2018-05-17T00:15:41.268Z,5.00
2018-05-17T00:16:41.255Z,4.90
2018-05-17T00:17:41.299Z,4.60
2018-05-17T00:18:41.225Z,4.80
2018-05-17T00:19:41.209Z,4.80
2018-05-17T00:20:41.199Z,4.80
2018-05-17T00:21:41.180Z,4.60
2018-05-17T00:22:41.166Z,4.80
2018-05-17T00:23:41.152Z,5.00
2018-05-17T00:24:41.137Z,4.80
2018-05-17T00:25:41.125Z,4.90
2018-05-17T00:26:41.109Z,4.50
2018-05-17T00:27:41.099Z,4.90
2018-05-17T00:28:41.082Z,4.70
2018-05-17T00:29:41.064Z,4.50
2018-05-17T00:30:41.053Z,4.50
2018-05-17T00:31:41.040Z,4.50
2018-05-17T00:32:41.027Z,4.40
2018-05-17T00:33:41.008Z,4.70
2018-05-17T00:34:40.993Z,4.60
2018-05-17T00:35:41.017Z,4.60
2018-05-17T00:36:40.965Z,4.50
2018-05-17T00:37:40.951Z,5.10
2018-05-17T00:38:40.939Z,4.60
2018-05-17T00:39:40.922Z,4.70
2018-05-17T00:40:40.909Z,4.70
2018-05-17T00:41:40.895Z,4.50
2018-05-17T00:42:40.883Z,4.60
2018-05-17T00:43:40.871Z,4.60
2018-05-17T00:44:40.854Z,4.60
2018-05-17T00:45:40.833Z,4.50
2018-05-17T00:46:40.829Z,4.70
2018-05-17T00:47:40.811Z,4.60
2018-05-17T00:48:40.800Z,4.70
2018-05-17T00:49:40.783Z,4.80
2018-05-17T00:50:40.767Z,4.60
2018-05-17T00:51:40.752Z,4.50
2018-05-17T00:52:40.742Z,4.50
2018-05-17T00:53:40.791Z,4.40
2018-05-17T00:54:40.714Z,4.70
2018-05-17T00:55:40.696Z,4.10
2018-05-17T00:56:40.681Z,4.60
2018-05-17T00:57:40.668Z,4.20
2018-05-17T00:58:40.657Z,4.70
2018-05-17T00:59:40.643Z,4.00
2018-05-17T01:00:40.626Z,4.60
2018-05-17T01:01:40.614Z,4.60
2018-05-17T01:02:40.601Z,4.30
2018-05-17T01:03:40.581Z,4.50
2018-05-17T01:04:40.569Z,4.40
2018-05-17T01:05:40.556Z,4.30
2018-05-17T01:06:40.603Z,4.50
2018-05-17T01:07:40.526Z,4.20
2018-05-17T01:08:40.513Z,4.30
2018-05-17T01:09:40.497Z,4.40
2018-05-17T01:10:40.485Z,4.30
2018-05-17T01:11:40.474Z,4.00
2018-05-17T01:12:40.456Z,4.00
2018-05-17T01:13:40.443Z,4.20
2018-05-17T01:14:40.431Z,4.30
2018-05-17T01:15:40.413Z,4.40
2018-05-17T01:16:40.398Z,4.30
2018-05-17T01:17:40.383Z,3.80
2018-05-17T01:18:40.370Z,4.20
2018-05-17T01:19:40.359Z,4.50
2018-05-17T01:20:40.341Z,4.10
2018-05-17T01:21:40.327Z,4.00
2018-05-17T01:22:40.314Z,4.20
2018-05-17T01:23:40.299Z,4.40
2018-05-17T01:24:40.285Z,4.10
2018-05-17T01:25:40.271Z,3.80
2018-05-17T01:26:40.256Z,4.20
2018-05-17T01:27:40.245Z,4.30
2018-05-17T01:28:40.229Z,4.30
2018-05-17T01:29:40.216Z,4.30
2018-05-17T01:30:40.198Z,4.10
2018-05-17T01:31:40.189Z,4.20
2018-05-17T01:32:40.173Z,4.00
2018-05-17T01:33:40.156Z,4.00
2018-05-17T01:34:40.144Z,4.20
2018-05-17T01:35:40.127Z,3.90
2018-05-17T01:36:40.115Z,4.30
2018-05-17T01:37:40.105Z,3.90
2018-05-17T01:38:40.086Z,4.00
2018-05-17T01:39:40.071Z,4.10
2018-05-17T01:40:40.058Z,4.10
2018-05-17T01:41:40.043Z,4.10
2018-05-17T01:42:40.029Z,4.20
2018-05-17T01:43:40.015Z,4.30
2018-05-17T01:44:40.002Z,4.10
2018-05-17T01:45:39.988Z,3.80
2018-05-17T01:46:39.972Z,3.90
2018-05-17T01:47:39.959Z,4.10
2018-05-17T01:48:39.944Z,3.90
2018-05-17T01:49:39.927Z,4.00
2018-05-17T01:50:39.914Z,4.00
2018-05-17T01:51:39.901Z,3.90
2018-05-17T01:52:39.889Z,3.90
2018-05-17T01:53:39.873Z,4.10
2018-05-17T01:54:39.859Z,3.90
2018-05-17T01:55:39.842Z,3.50
2018-05-17T01:56:39.830Z,3.70
2018-05-17T01:57:39.814Z,3.80
2018-05-17T01:58:39.802Z,3.80
2018-05-17T01:59:39.789Z,3.90
2018-05-17T02:00:39.771Z,3.90
2018-05-17T02:01:39.759Z,3.90
2018-05-17T02:02:39.745Z,3.80
2018-05-17T02:03:39.731Z,3.90
2018-05-17T02:04:39.715Z,3.70
2018-05-17T02:05:39.704Z,3.80
2018-05-17T02:06:39.686Z,3.70
2018-05-17T02:07:39.674Z,4.00
2018-05-17T02:08:39.659Z,3.90
2018-05-17T02:09:39.646Z,3.70
2018-05-17T02:10:39.628Z,3.90
2018-05-17T02:11:39.619Z,3.50
2018-05-17T02:12:39.602Z,3.80
2018-05-17T02:13:39.587Z,3.90
2018-05-17T02:14:39.572Z,4.10
2018-05-17T02:15:39.557Z,4.00
2018-05-17T02:16:39.545Z,3.90
2018-05-17T02:17:39.529Z,3.80
2018-05-17T02:18:39.513Z,3.80
2018-05-17T02:19:39.499Z,3.70
2018-05-17T02:20:39.496Z,3.70
2018-05-17T02:21:39.470Z,3.70
2018-05-17T02:22:39.457Z,4.00
2018-05-17T02:23:39.444Z,3.90
2018-05-17T02:24:39.432Z,3.90
2018-05-17T02:25:39.413Z,3.70
2018-05-17T02:26:39.399Z,3.50
2018-05-17T02:27:39.386Z,3.60
2018-05-17T02:28:39.371Z,3.80
2018-05-17T02:29:39.363Z,3.70
2018-05-17T02:30:39.343Z,3.70
2018-05-17T02:31:39.329Z,3.80
2018-05-17T02:32:39.319Z,3.90
2018-05-17T02:33:39.297Z,3.90
2018-05-17T02:34:39.286Z,4.00
2018-05-17T02:35:39.270Z,3.80
2018-05-17T02:36:39.257Z,3.90
2018-05-17T02:37:39.247Z,3.90
2018-05-17T02:38:39.228Z,3.80
2018-05-17T02:39:39.211Z,4.10
2018-05-17T02:40:39.207Z,3.60
2018-05-17T02:41:39.187Z,3.80
2018-05-17T02:42:39.177Z,4.20
2018-05-17T02:43:39.156Z,3.80
2018-05-17T02:44:39.142Z,4.20
2018-05-17T02:45:39.131Z,3.90
2018-05-17T02:46:39.115Z,4.00
2018-05-17T02:47:39.102Z,3.70
2018-05-17T02:48:39.085Z,4.10
2018-05-17T02:49:39.068Z,4.10
2018-05-17T02:50:39.054Z,4.30
2018-05-17T02:51:39.040Z,4.00
2018-05-17T02:52:39.025Z,4.20
2018-05-17T02:53:39.014Z,4.10
2018-05-17T02:54:38.998Z,4.20
2018-05-17T02:55:38.983Z,4.40
2018-05-17T02:56:38.972Z,4.30
2018-05-17T02:57:38.957Z,4.10
2018-05-17T02:58:38.941Z,4.40
2018-05-17T02:59:38.924Z,4.60
2018-05-17T03:00:38.916Z,4.30
2018-05-17T03:01:38.896Z,4.20
2018-05-17T03:02:38.882Z,4.20
2018-05-17T03:03:38.867Z,4.60
2018-05-17T03:04:38.863Z,4.30
2018-05-17T03:05:38.841Z,4.50
2018-05-17T03:06:38.823Z,4.40
2018-05-17T03:07:38.811Z,4.70
2018-05-17T03:08:38.797Z,4.10
2018-05-17T03:09:38.782Z,4.60
2018-05-17T03:10:38.765Z,4.80
2018-05-17T03:11:38.757Z,4.90
2018-05-17T03:12:38.736Z,4.60
2018-05-17T03:13:38.723Z,4.50
2018-05-17T03:14:38.707Z,4.40
2018-05-17T03:15:38.693Z,4.70
2018-05-17T03:16:38.678Z,4.90
2018-05-17T03:17:38.663Z,4.90
2018-05-17T03:18:38.651Z,4.70
2018-05-17T03:19:38.637Z,5.00
2018-05-17T03:20:38.625Z,5.20
2018-05-17T03:21:38.604Z,4.50
2018-05-17T03:22:38.592Z,5.10
2018-05-17T03:23:38.577Z,4.70
2018-05-17T03:24:38.564Z,5.30
2018-05-17T03:25:38.550Z,4.80
2018-05-17T03:26:38.535Z,5.10
2018-05-17T03:27:38.522Z,4.80
2018-05-17T03:28:38.508Z,5.10
2018-05-17T03:29:38.491Z,5.30
2018-05-17T03:30:38.476Z,5.00
2018-05-17T03:31:38.462Z,5.30
2018-05-17T03:32:38.449Z,5.20
2018-05-17T03:33:38.432Z,5.10
2018-05-17T03:34:38.418Z,5.30
2018-05-17T03:35:38.407Z,5.30
2018-05-17T03:36:38.395Z,5.20
2018-05-17T03:37:38.375Z,5.30
2018-05-17T03:38:38.360Z,5.50
2018-05-17T03:39:38.345Z,5.50
2018-05-17T03:40:38.331Z,5.30
2018-05-17T03:41:38.317Z,5.00
2018-05-17T03:42:38.304Z,5.40
2018-05-17T03:43:38.287Z,5.40
2018-05-17T03:44:38.277Z,5.40
2018-05-17T03:45:38.259Z,5.60
2018-05-17T03:46:38.243Z,5.80
2018-05-17T03:47:38.231Z,5.40
2018-05-17T03:48:38.214Z,5.20
2018-05-17T03:49:38.202Z,5.70
2018-05-17T03:50:38.184Z,6.00
2018-05-17T03:51:38.172Z,5.80
2018-05-17T03:52:38.156Z,5.50
2018-05-17T03:53:38.141Z,6.00
2018-05-17T03:54:38.127Z,5.70
2018-05-17T03:55:38.115Z,5.70
2018-05-17T03:56:38.099Z,6.10
2018-05-17T03:57:38.083Z,6.00
2018-05-17T03:58:38.069Z,6.30
2018-05-17T03:59:38.054Z,5.90
2018-05-17T04:00:38.044Z,6.20
2018-05-17T04:01:38.025Z,5.60
2018-05-17T04:02:38.011Z,6.00
2018-05-17T04:03:37.995Z,6.00
2018-05-17T04:04:37.980Z,5.80
2018-05-17T04:05:37.970Z,6.30
2018-05-17T04:06:37.951Z,5.80
2018-05-17T04:07:37.939Z,6.00
2018-05-17T04:08:38.021Z,5.90
2018-05-17T04:09:37.911Z,6.00
2018-05-17T04:10:37.895Z,5.70
2018-05-17T04:11:37.882Z,6.20
2018-05-17T04:12:37.865Z,5.50
2018-05-17T04:13:37.852Z,5.90
2018-05-17T04:14:37.879Z,6.20
2018-05-17T04:15:37.824Z,5.90
2018-05-17T04:16:37.809Z,6.30
2018-05-17T04:17:37.793Z,6.30
2018-05-17T04:18:37.781Z,6.50
2018-05-17T04:19:37.764Z,5.70
2018-05-17T04:20:37.748Z,6.00
2018-05-17T04:21:37.733Z,6.20
2018-05-17T04:22:37.720Z,6.00
2018-05-17T04:23:37.706Z,5.60
2018-05-17T04:24:37.694Z,6.10
2018-05-17T04:25:37.674Z,6.90
2018-05-17T04:26:37.661Z,8.00
2018-05-17T04:27:37.646Z,7.10
2018-05-17T04:28:37.642Z,7.10
2018-05-17T04:31:09.186Z,7.20
2018-05-17T04:32:09.161Z,6.90
2018-05-17T04:34:02.029Z,7.30
2018-05-17T04:35:02.001Z,7.30
2018-05-17T04:36:01.986Z,7.00
2018-05-17T04:37:01.969Z,6.90
2018-05-17T04:38:01.955Z,7.00
2018-05-17T04:39:01.948Z,7.20
2018-05-17T04:40:01.927Z,6.80
2018-05-17T04:41:01.911Z,7.20
2018-05-17T04:42:01.899Z,7.30
2018-05-17T04:43:01.882Z,6.70
2018-05-17T04:44:01.872Z,6.80
2018-05-17T04:45:01.867Z,6.70
2018-05-17T04:46:01.838Z,6.70
2018-05-17T04:47:01.836Z,7.10
2018-05-17T04:48:01.809Z,7.20
2018-05-17T04:49:01.798Z,6.70
2018-05-17T04:50:01.779Z,6.70
2018-05-17T04:51:01.767Z,6.60
2018-05-17T04:52:01.786Z,6.80
2018-05-17T04:53:01.735Z,6.60
2018-05-17T04:54:01.722Z,7.00
2018-05-17T04:55:01.710Z,6.90
2018-05-17T04:56:01.694Z,6.60
2018-05-17T04:57:01.678Z,6.40
2018-05-17T04:58:01.665Z,6.70
2018-05-17T04:59:01.649Z,6.40
2018-05-17T05:00:01.634Z,6.70
2018-05-17T05:01:01.618Z,7.00
2018-05-17T05:02:01.604Z,6.80
2018-05-17T05:03:01.797Z,6.90
2018-05-17T05:04:01.576Z,6.90
2018-05-17T05:05:01.559Z,6.60
2018-05-17T05:06:01.547Z,7.00
2018-05-17T05:07:01.530Z,6.60
2018-05-17T05:08:01.514Z,6.50
2018-05-17T05:09:01.501Z,6.20
2018-05-17T05:10:01.489Z,7.10
2018-05-17T05:11:01.475Z,6.20
2018-05-17T05:12:01.456Z,6.50
2018-05-17T05:13:01.440Z,6.70
2018-05-17T05:14:01.432Z,6.60
2018-05-17T05:15:01.413Z,6.30
2018-05-17T05:16:01.397Z,6.20
2018-05-17T05:17:01.380Z,6.40
2018-05-17T05:18:01.365Z,6.50
2018-05-17T05:19:01.353Z,6.40
2018-05-17T05:20:01.339Z,6.20
2018-05-17T05:21:01.322Z,6.80
2018-05-17T05:22:01.312Z,6.40
2018-05-17T05:23:01.294Z,6.40
2018-05-17T05:24:01.283Z,6.50
2018-05-17T05:25:01.263Z,6.50
2018-05-17T05:26:01.254Z,6.40
2018-05-17T05:27:01.235Z,6.20
2018-05-17T05:28:01.220Z,6.20
2018-05-17T05:29:01.204Z,6.50
2018-05-17T05:30:01.190Z,7.10
2018-05-17T05:31:01.177Z,6.20
2018-05-17T05:32:01.163Z,6.70
2018-05-17T05:33:01.146Z,5.90
2018-05-17T05:34:01.125Z,6.30
2018-05-17T05:35:01.114Z,6.30
2018-05-17T05:36:01.103Z,6.20
2018-05-17T05:38:32.662Z,6.50
2018-05-17T05:39:32.636Z,6.30
2018-05-17T05:41:25.486Z,6.30
2018-05-17T05:42:25.468Z,6.20
2018-05-17T05:44:18.328Z,6.50
2018-05-17T05:45:18.305Z,6.40
2018-05-17T05:47:11.160Z,6.30
2018-05-17T05:48:11.137Z,6.00
2018-05-17T05:50:04.005Z,6.30
2018-05-17T05:51:03.976Z,6.30
2018-05-17T05:52:56.835Z,6.30
2018-05-17T05:53:56.809Z,6.30
2018-05-17T05:55:49.662Z,6.70
2018-05-17T05:56:49.646Z,6.60
2018-05-17T05:58:42.505Z,6.70
2018-05-17T05:59:42.478Z,6.60
2018-05-17T06:01:35.333Z,6.60
2018-05-17T06:02:35.316Z,6.80
2018-05-17T06:04:28.198Z,6.80
2018-05-17T06:05:28.149Z,6.70
2018-05-17T06:07:21.388Z,6.90
2018-05-17T06:08:21.067Z,6.70
2018-05-17T06:10:13.846Z,6.70
2018-05-17T06:11:13.818Z,6.70
2018-05-17T06:12:13.804Z,6.40
2018-05-17T06:13:13.792Z,6.60
2018-05-17T06:14:13.773Z,6.80
2018-05-17T06:15:13.759Z,6.80
2018-05-17T06:16:13.744Z,7.10
2018-05-17T06:17:13.733Z,6.80
2018-05-17T06:18:13.714Z,6.90
2018-05-17T06:19:13.700Z,7.30
2018-05-17T06:20:13.684Z,6.90
2018-05-17T06:21:13.669Z,7.00
2018-05-17T06:22:13.655Z,7.00
2018-05-17T06:23:13.639Z,6.70
2018-05-17T06:24:13.628Z,6.70
2018-05-17T06:25:13.617Z,7.10
2018-05-17T06:26:13.596Z,7.30
2018-05-17T06:27:13.587Z,7.20
2018-05-17T06:28:13.569Z,7.70
2018-05-17T06:29:13.551Z,6.90
2018-05-17T06:30:13.538Z,7.30
2018-05-17T06:31:13.523Z,7.00
2018-05-17T06:32:13.510Z,6.90
2018-05-17T06:33:13.491Z,7.20
2018-05-17T06:34:13.477Z,7.30
2018-05-17T06:35:13.462Z,7.50
2018-05-17T06:36:13.448Z,7.00
2018-05-17T06:37:13.430Z,7.00
2018-05-17T06:38:13.420Z,7.70
2018-05-17T06:39:13.409Z,7.70
2018-05-17T06:40:13.389Z,7.40
2018-05-17T06:41:13.372Z,7.20
2018-05-17T06:42:13.357Z,6.90
2018-05-17T06:43:13.343Z,7.10
2018-05-17T06:44:13.331Z,7.20
2018-05-17T06:45:13.312Z,7.40
2018-05-17T06:46:13.296Z,7.20
2018-05-17T06:47:13.283Z,7.80
2018-05-17T06:48:13.269Z,7.30
2018-05-17T06:49:13.252Z,7.60
2018-05-17T06:50:13.240Z,7.50
2018-05-17T06:51:13.223Z,7.40
2018-05-17T06:52:13.207Z,7.50
2018-05-17T06:53:13.193Z,7.60
2018-05-17T06:54:13.183Z,7.70
2018-05-17T06:55:13.166Z,7.40
2018-05-17T06:56:13.147Z,7.70
2018-05-17T06:57:13.133Z,7.40
2018-05-17T06:58:13.119Z,7.70
2018-05-17T06:59:13.107Z,7.70
2018-05-17T07:00:13.089Z,8.20
2018-05-17T07:01:13.154Z,8.00
2018-05-17T07:02:13.062Z,7.90
2018-05-17T07:03:13.044Z,7.50
2018-05-17T07:04:13.035Z,7.60
2018-05-17T07:05:13.014Z,7.90
2018-05-17T07:06:13.004Z,7.60
2018-05-17T07:07:12.984Z,8.40
2018-05-17T07:08:12.968Z,7.90
2018-05-17T07:09:12.954Z,8.10
2018-05-17T07:10:12.941Z,8.10
2018-05-17T07:11:12.925Z,8.00
2018-05-17T07:12:12.910Z,8.20
2018-05-17T07:13:12.894Z,8.30
2018-05-17T07:14:12.879Z,7.70
2018-05-17T07:15:12.866Z,7.90
2018-05-17T07:16:12.858Z,8.40
2018-05-17T07:17:12.836Z,8.10
2018-05-17T07:18:12.848Z,8.10
2018-05-17T07:19:12.805Z,8.30
2018-05-17T07:20:12.790Z,8.30
2018-05-17T07:21:12.776Z,8.00
2018-05-17T07:22:12.762Z,8.00
2018-05-17T07:23:12.746Z,8.00
2018-05-17T07:24:12.756Z,7.70
2018-05-17T07:25:12.715Z,8.20
2018-05-17T07:26:12.700Z,8.00
2018-05-17T07:27:12.685Z,8.30
2018-05-17T07:28:12.669Z,8.20
2018-05-17T07:29:12.657Z,7.80
2018-05-17T07:30:12.639Z,8.00
2018-05-17T07:31:12.628Z,8.20
2018-05-17T07:32:12.612Z,7.80
2018-05-17T07:33:12.597Z,8.40
2018-05-17T07:34:12.580Z,8.20
2018-05-17T07:35:12.568Z,7.80
2018-05-17T07:36:12.549Z,8.20
2018-05-17T07:37:12.535Z,8.10
2018-05-17T07:38:12.522Z,8.20
2018-05-17T07:39:12.535Z,8.10
2018-05-17T07:40:12.490Z,7.80
2018-05-17T07:41:12.479Z,8.00
2018-05-17T07:42:12.462Z,8.10
2018-05-17T07:43:12.444Z,8.00
2018-05-17T07:44:12.432Z,7.70
2018-05-17T07:45:12.414Z,8.00
2018-05-17T07:46:12.410Z,7.50
2018-05-17T07:47:12.409Z,7.70
2018-05-17T07:48:12.371Z,7.80
2018-05-17T07:49:12.355Z,7.60
2018-05-17T07:50:12.343Z,7.80
2018-05-17T07:51:12.328Z,7.70
2018-05-17T07:52:12.332Z,8.20
2018-05-17T07:53:12.295Z,7.80
2018-05-17T07:54:12.281Z,7.70
2018-05-17T07:55:12.271Z,7.30
2018-05-17T07:56:12.252Z,7.90
2018-05-17T07:57:12.237Z,7.70
2018-05-17T07:58:12.220Z,7.70
2018-05-17T07:59:12.206Z,7.50
2018-05-17T08:00:12.192Z,7.70
2018-05-17T08:01:12.175Z,7.30
2018-05-17T08:02:12.161Z,7.40
2018-05-17T08:03:12.145Z,7.70
2018-05-17T08:04:12.133Z,7.50
2018-05-17T08:05:12.116Z,7.60
2018-05-17T08:06:12.102Z,7.10
2018-05-17T08:07:12.088Z,7.30
2018-05-17T08:08:12.071Z,7.20
2018-05-17T08:09:12.054Z,7.20
2018-05-17T08:10:12.046Z,7.60
2018-05-17T08:11:12.025Z,7.00
2018-05-17T08:12:12.015Z,7.40
2018-05-17T08:13:11.996Z,7.20
2018-05-17T08:14:11.981Z,7.40
2018-05-17T08:15:11.966Z,7.20
2018-05-17T08:16:11.952Z,7.70
2018-05-17T08:17:11.938Z,7.60
2018-05-17T08:18:11.920Z,7.70
2018-05-17T08:19:11.909Z,7.20
2018-05-17T08:20:11.892Z,7.10
2018-05-17T08:21:11.883Z,7.00
2018-05-17T08:22:11.859Z,7.20
2018-05-17T08:23:11.845Z,7.30
2018-05-17T08:24:11.831Z,7.10
2018-05-17T08:25:11.813Z,7.50
2018-05-17T08:26:11.800Z,7.30
2018-05-17T08:27:11.788Z,7.00
2018-05-17T08:28:11.772Z,6.90
2018-05-17T08:29:11.754Z,7.40
2018-05-17T08:30:11.744Z,7.00
2018-05-17T08:31:11.754Z,7.10
2018-05-17T08:32:11.711Z,7.00
2018-05-17T08:33:11.695Z,6.80
2018-05-17T08:34:11.678Z,7.10
2018-05-17T08:35:11.663Z,6.90
2018-05-17T08:36:11.754Z,7.00
2018-05-17T08:37:11.637Z,7.20
2018-05-17T08:38:11.618Z,7.00
2018-05-17T08:39:11.603Z,6.70
2018-05-17T08:40:11.590Z,7.10
2018-05-17T08:41:11.573Z,6.40
2018-05-17T08:42:11.560Z,7.10
2018-05-17T08:43:11.544Z,7.00
2018-05-17T08:44:11.532Z,6.80
2018-05-17T08:45:11.516Z,6.30
2018-05-17T08:46:11.499Z,6.60
2018-05-17T08:47:11.486Z,6.20
2018-05-17T08:48:11.470Z,6.80
2018-05-17T08:49:11.455Z,6.80
2018-05-17T08:50:11.438Z,6.60
2018-05-17T08:51:11.422Z,6.00
2018-05-17T08:52:11.411Z,6.50
2018-05-17T08:53:11.396Z,6.40
2018-05-17T08:54:11.380Z,6.50
2018-05-17T08:55:11.371Z,6.60
2018-05-17T08:56:11.349Z,6.30
2018-05-17T08:57:11.334Z,6.50
2018-05-17T08:58:11.323Z,6.80
2018-05-17T08:59:11.304Z,6.30
2018-05-17T09:00:11.288Z,6.50
2018-05-17T09:01:11.274Z,6.30
2018-05-17T09:02:11.263Z,6.20
2018-05-17T09:03:11.244Z,6.50
2018-05-17T09:04:11.227Z,6.10
2018-05-17T09:05:11.219Z,6.30
2018-05-17T09:06:11.258Z,6.20
2018-05-17T09:07:11.183Z,6.20
2018-05-17T09:08:11.170Z,6.00
2018-05-17T09:09:11.152Z,6.10
2018-05-17T09:10:11.140Z,5.90
2018-05-17T09:11:11.123Z,6.20
2018-05-17T09:12:11.108Z,6.00
2018-05-17T09:13:11.095Z,6.30
2018-05-17T09:14:11.077Z,6.60
2018-05-17T09:15:11.065Z,6.60
2018-05-17T09:16:11.047Z,6.00
2018-05-17T09:17:11.030Z,6.20
2018-05-17T09:18:11.017Z,5.80
2018-05-17T09:19:11.002Z,6.10
2018-05-17T09:20:10.995Z,6.30
2018-05-17T09:21:10.969Z,6.10
2018-05-17T09:22:10.954Z,6.20
2018-05-17T09:23:10.942Z,5.90
2018-05-17T09:24:10.929Z,6.10
2018-05-17T09:25:10.912Z,5.90
2018-05-17T09:26:10.900Z,5.60
2018-05-17T09:27:10.881Z,5.70
2018-05-17T09:28:10.866Z,5.90
2018-05-17T09:29:10.942Z,5.90
2018-05-17T09:30:10.835Z,5.90
2018-05-17T09:31:10.822Z,5.80
2018-05-17T09:32:10.804Z,6.00
2018-05-17T09:33:10.789Z,5.90
2018-05-17T09:34:10.773Z,5.60
2018-05-17T09:35:10.761Z,6.00
2018-05-17T09:36:10.745Z,5.90
2018-05-17T09:37:10.729Z,5.90
2018-05-17T09:38:10.714Z,5.60
2018-05-17T09:39:10.702Z,6.10
2018-05-17T09:40:10.689Z,6.00
2018-05-17T09:41:10.673Z,5.60
2018-05-17T09:42:10.652Z,5.50
2018-05-17T09:43:10.640Z,5.50
2018-05-17T09:44:10.632Z,5.60
2018-05-17T09:45:10.609Z,5.60
2018-05-17T09:46:10.593Z,5.40
2018-05-17T09:47:10.579Z,5.50
2018-05-17T09:48:10.561Z,5.60
2018-05-17T09:49:10.552Z,5.60
2018-05-17T09:50:10.532Z,5.30
2018-05-17T09:51:10.524Z,5.30
2018-05-17T09:52:10.505Z,5.40
2018-05-17T09:53:10.487Z,5.50
2018-05-17T09:54:10.470Z,5.50
2018-05-17T09:55:10.457Z,5.50
2018-05-17T09:56:10.444Z,5.80
2018-05-17T09:57:10.435Z,5.60
2018-05-17T09:58:10.415Z,5.20
2018-05-17T09:59:10.396Z,5.20
2018-05-17T10:00:10.386Z,5.20
2018-05-17T10:01:10.366Z,5.40
2018-05-17T10:02:10.354Z,5.30
2018-05-17T10:03:10.339Z,5.20
2018-05-17T10:04:10.323Z,5.40
2018-05-17T10:05:10.306Z,5.30
2018-05-17T10:06:10.292Z,5.30
2018-05-17T10:07:10.285Z,5.30
2018-05-17T10:08:10.261Z,5.40
2018-05-17T10:09:10.247Z,5.30
2018-05-17T10:10:10.231Z,5.20
2018-05-17T10:11:10.216Z,5.20
2018-05-17T10:12:10.200Z,5.00
2018-05-17T10:13:10.185Z,5.20
2018-05-17T10:14:10.176Z,5.00
2018-05-17T10:15:10.157Z,5.00
2018-05-17T10:16:10.141Z,5.20
2018-05-17T10:17:10.126Z,5.10
2018-05-17T10:18:10.112Z,4.90
2018-05-17T10:19:10.096Z,5.20
2018-05-17T10:20:10.081Z,5.10
2018-05-17T10:21:10.067Z,5.10
2018-05-17T10:22:10.049Z,5.20
2018-05-17T10:23:10.080Z,5.20
2018-05-17T10:24:10.021Z,5.30
2018-05-17T10:25:10.003Z,4.70
2018-05-17T10:26:09.990Z,5.20
2018-05-17T10:27:09.973Z,5.10
2018-05-17T10:28:09.960Z,5.00
2018-05-17T10:29:09.943Z,5.30
2018-05-17T10:30:09.929Z,5.20
2018-05-17T10:31:09.913Z,5.10
2018-05-17T10:32:09.898Z,4.90
2018-05-17T10:33:09.882Z,4.50
2018-05-17T10:34:09.869Z,5.00
2018-05-17T10:35:09.854Z,5.10
2018-05-17T10:36:09.839Z,5.10
2018-05-17T10:37:09.824Z,5.10
2018-05-17T10:38:09.806Z,4.60
2018-05-17T10:39:09.792Z,5.10
2018-05-17T10:40:09.777Z,4.80
2018-05-17T10:41:09.769Z,4.60
2018-05-17T10:42:09.773Z,5.10
2018-05-17T10:43:09.739Z,4.80
2018-05-17T10:44:09.717Z,4.90
2018-05-17T10:45:09.701Z,4.70
2018-05-17T10:46:09.687Z,4.80
2018-05-17T10:47:09.671Z,4.60
2018-05-17T10:48:09.656Z,4.60
2018-05-17T10:49:09.644Z,4.90
2018-05-17T10:50:09.630Z,4.70
2018-05-17T10:51:09.611Z,4.70
2018-05-17T10:52:09.596Z,4.50
2018-05-17T10:53:09.582Z,5.10
2018-05-17T10:54:09.568Z,4.50
2018-05-17T10:55:09.553Z,4.70
2018-05-17T10:56:09.537Z,4.80
2018-05-17T10:57:09.524Z,4.70
2018-05-17T10:58:09.505Z,5.00
2018-05-17T10:59:09.492Z,4.70
2018-05-17T11:00:09.475Z,4.70
2018-05-17T11:01:09.459Z,4.60
2018-05-17T11:02:09.444Z,4.70
2018-05-17T11:03:09.431Z,4.90
2018-05-17T11:04:09.417Z,4.70
2018-05-17T11:05:09.399Z,4.60
2018-05-17T11:06:09.383Z,4.70
2018-05-17T11:07:09.369Z,4.30
2018-05-17T11:08:09.354Z,4.70
2018-05-17T11:09:09.339Z,5.00
2018-05-17T11:10:09.321Z,4.50
2018-05-17T11:11:09.310Z,4.40
2018-05-17T11:12:09.367Z,4.50
2018-05-17T11:13:09.276Z,4.50
2018-05-17T11:14:09.269Z,4.20
2018-05-17T11:15:09.251Z,4.50
2018-05-17T11:16:09.234Z,4.20
2018-05-17T11:17:09.217Z,4.60
2018-05-17T11:18:09.203Z,4.70
2018-05-17T11:19:09.187Z,4.60
2018-05-17T11:20:09.178Z,4.30
2018-05-17T11:21:09.161Z,4.70
2018-05-17T11:22:09.142Z,4.30
2018-05-17T11:23:09.127Z,4.30
2018-05-17T11:24:09.112Z,4.40
2018-05-17T11:25:09.096Z,4.40
2018-05-17T11:26:09.079Z,4.50
2018-05-17T11:27:09.066Z,4.40
2018-05-17T11:28:09.053Z,4.10
2018-05-17T11:29:09.034Z,4.40
2018-05-17T11:30:09.022Z,4.50
2018-05-17T11:31:09.005Z,4.20
2018-05-17T11:32:08.994Z,4.20
2018-05-17T11:33:09.055Z,4.30
2018-05-17T11:34:08.961Z,4.20
2018-05-17T11:35:08.944Z,4.50
2018-05-17T11:36:08.933Z,4.30
2018-05-17T11:37:08.915Z,4.10
2018-05-17T11:38:08.900Z,4.70
2018-05-17T11:39:08.887Z,4.10
2018-05-17T11:40:08.869Z,4.60
2018-05-17T11:41:08.855Z,4.70
2018-05-17T11:42:08.840Z,3.90
2018-05-17T11:43:08.823Z,4.20
2018-05-17T11:44:08.867Z,4.20
2018-05-17T11:45:08.794Z,4.40
2018-05-17T11:46:08.839Z,4.10
2018-05-17T11:47:08.764Z,4.40
2018-05-17T11:48:08.748Z,3.90
2018-05-17T11:49:08.728Z,4.20
2018-05-17T11:50:08.720Z,4.40
2018-05-17T11:51:08.704Z,4.30
2018-05-17T11:52:08.688Z,4.00
2018-05-17T11:53:08.672Z,4.20
2018-05-17T11:54:08.659Z,4.10
2018-05-17T11:55:08.642Z,4.30
2018-05-17T11:56:08.627Z,3.90
2018-05-17T11:57:08.613Z,4.30
2018-05-17T11:58:08.597Z,4.00
2018-05-17T11:59:08.585Z,4.10
2018-05-17T12:00:08.568Z,3.90
2018-05-17T12:01:08.553Z,4.10
2018-05-17T12:02:08.537Z,4.10
2018-05-17T12:03:08.529Z,4.20
2018-05-17T12:04:08.507Z,3.60
2018-05-17T12:05:08.491Z,3.90
2018-05-17T12:06:08.477Z,4.10
2018-05-17T12:07:08.526Z,3.60
2018-05-17T12:08:08.449Z,3.80
2018-05-17T12:09:08.431Z,3.90
2018-05-17T12:10:08.416Z,3.90
2018-05-17T12:11:08.401Z,3.70
2018-05-17T12:12:08.385Z,4.00
2018-05-17T12:13:08.376Z,3.90
2018-05-17T12:14:08.432Z,3.70
2018-05-17T12:15:08.339Z,3.90
2018-05-17T12:16:08.324Z,4.20
2018-05-17T12:17:08.309Z,3.70
2018-05-17T12:18:08.296Z,3.90
2018-05-17T12:19:08.279Z,3.90
2018-05-17T12:20:08.264Z,4.10
2018-05-17T12:21:08.250Z,3.50
2018-05-17T12:22:08.233Z,3.90
2018-05-17T12:23:08.271Z,4.50
2018-05-17T12:24:08.202Z,4.00
2018-05-17T12:25:08.187Z,3.80
2018-05-17T12:26:08.175Z,3.80
2018-05-17T12:27:08.158Z,3.80
2018-05-17T12:28:08.144Z,4.00
2018-05-17T12:29:08.127Z,4.00
2018-05-17T12:30:08.113Z,4.00
2018-05-17T12:31:08.097Z,4.00
2018-05-17T12:32:08.082Z,3.90
2018-05-17T12:33:08.069Z,3.80
2018-05-17T12:34:08.050Z,3.80
2018-05-17T12:35:08.036Z,4.10
2018-05-17T12:36:08.025Z,4.40
2018-05-17T12:37:08.084Z,4.10
2018-05-17T12:38:07.989Z,4.30
2018-05-17T12:39:07.975Z,4.00
2018-05-17T12:40:07.964Z,4.50
2018-05-17T12:41:07.944Z,4.90
2018-05-17T12:42:07.929Z,4.00
2018-05-17T12:43:07.913Z,4.80
2018-05-17T12:44:07.900Z,4.00
2018-05-17T12:45:07.886Z,4.60
2018-05-17T12:47:39.441Z,4.50
2018-05-17T12:48:39.415Z,4.20
2018-05-17T12:50:32.280Z,4.10
2018-05-17T12:51:32.260Z,4.30
2018-05-17T12:53:25.120Z,3.90
2018-05-17T12:54:25.093Z,3.90
2018-05-17T12:56:17.964Z,4.00
2018-05-17T12:57:17.930Z,4.30
2018-05-17T12:59:10.782Z,3.60
2018-05-17T13:00:10.764Z,3.80
2018-05-17T13:02:03.626Z,4.00
2018-05-17T13:03:03.594Z,3.60
2018-05-17T13:04:56.448Z,3.80
2018-05-17T13:05:56.429Z,4.10
2018-05-17T13:07:49.288Z,3.60
2018-05-17T13:08:49.263Z,3.80
2018-05-17T13:10:42.117Z,3.20
2018-05-17T13:11:42.099Z,3.70
2018-05-17T13:13:34.992Z,3.70
2018-05-17T13:14:34.968Z,3.40
2018-05-17T13:16:27.817Z,3.60
2018-05-17T13:17:27.879Z,3.50
2018-05-17T13:19:20.673Z,3.50
2018-05-17T13:20:20.648Z,3.60
2018-05-17T13:22:13.498Z,3.20
2018-05-17T13:23:13.477Z,3.30
2018-05-17T13:25:06.337Z,3.50
2018-05-17T13:26:06.311Z,3.70
2018-05-17T13:27:59.185Z,3.10
2018-05-17T13:28:59.147Z,3.70
2018-05-17T13:29:59.136Z,3.60
2018-05-17T13:30:59.117Z,3.40
2018-05-17T13:31:59.100Z,3.70
2018-05-17T13:32:59.089Z,3.70
2018-05-17T13:33:59.071Z,3.50
2018-05-17T13:34:59.056Z,3.60
2018-05-17T13:35:59.042Z,3.80
2018-05-17T13:36:59.029Z,3.70
2018-05-17T13:37:59.014Z,3.50
2018-05-17T13:38:58.997Z,3.50
2018-05-17T13:39:58.980Z,3.40
2018-05-17T13:40:58.966Z,3.60
2018-05-17T13:41:58.953Z,3.40
2018-05-17T13:42:58.936Z,3.50
2018-05-17T13:43:58.920Z,3.20
2018-05-17T13:44:58.905Z,3.50
2018-05-17T13:45:58.890Z,3.70
2018-05-17T13:46:58.877Z,3.30
2018-05-17T13:47:58.939Z,3.40
2018-05-17T13:48:58.846Z,3.50